sensor_id;sensor_type;location;lat;lon;timestamp;P1;durP1;ratioP1;P2;durP2;ratioP2
52047;SDS011;46904;49.438;8.752;2022-09-02T00:00:57;2.85;;;2.60;;
52047;SDS011;46904;49.438;8.752;2022-09-02T00:03:22;2.47;;;2.28;;
52047;SDS011;46904;49.438;8.752;2022-09-02T00:05:48;2.50;;;2.30;;
52047;SDS011;46904;49.438;8.752;2022-09-02T00:08:13;3.33;;;2.25;;
52047;SDS011;46904;49.438;8.752;2022-09-02T00:10:40;2.55;;;2.35;;
52047;SDS011;46904;49.438;8.752;2022-09-02T00:13:06;2.22;;;2.03;;
52047;SDS011;46904;49.438;8.752;2022-09-02T00:15:32;2.60;;;2.40;;
52047;SDS011;46904;49.438;8.752;2022-09-02T00:17:58;5.03;;;2.45;;
52047;SDS011;46904;49.438;8.752;2022-09-02T00:20:23;2.38;;;2.17;;
52047;SDS011;46904;49.438;8.752;2022-09-02T00:22:49;3.50;;;2.40;;
52047;SDS011;46904;49.438;8.752;2022-09-02T00:25:15;2.97;;;2.40;;
52047;SDS011;46904;49.438;8.752;2022-09-02T00:27:40;3.25;;;2.15;;
52047;SDS011;46904;49.438;8.752;2022-09-02T00:30:06;2.28;;;2.08;;
52047;SDS011;46904;49.438;8.752;2022-09-02T00:32:31;2.40;;;2.20;;
52047;SDS011;46904;49.438;8.752;2022-09-02T00:34:57;2.60;;;2.40;;
52047;SDS011;46904;49.438;8.752;2022-09-02T00:37:23;3.85;;;2.70;;
52047;SDS011;46904;49.438;8.752;2022-09-02T00:39:49;5.00;;;2.33;;
52047;SDS011;46904;49.438;8.752;2022-09-02T00:42:15;2.45;;;2.25;;
52047;SDS011;46904;49.438;8.752;2022-09-02T00:44:40;2.25;;;2.05;;
52047;SDS011;46904;49.438;8.752;2022-09-02T00:47:06;2.17;;;2.05;;
52047;SDS011;46904;49.438;8.752;2022-09-02T00:49:32;2.20;;;2.10;;
52047;SDS011;46904;49.438;8.752;2022-09-02T00:54:25;2.08;;;1.63;;
52047;SDS011;46904;49.438;8.752;2022-09-02T00:56:51;4.78;;;2.10;;
52047;SDS011;46904;49.438;8.752;2022-09-02T00:59:19;1.88;;;1.77;;
52047;SDS011;46904;49.438;8.752;2022-09-02T01:01:46;2.33;;;2.13;;
52047;SDS011;46904;49.438;8.752;2022-09-02T01:04:11;3.00;;;2.63;;
52047;SDS011;46904;49.438;8.752;2022-09-02T01:06:37;4.75;;;1.90;;
52047;SDS011;46904;49.438;8.752;2022-09-02T01:09:04;2.40;;;2.20;;
52047;SDS011;46904;49.438;8.752;2022-09-02T01:11:35;2.33;;;2.13;;
52047;SDS011;46904;49.438;8.752;2022-09-02T01:14:01;3.33;;;2.60;;
52047;SDS011;46904;49.438;8.752;2022-09-02T01:16:29;2.50;;;2.17;;
52047;SDS011;46904;49.438;8.752;2022-09-02T01:18:56;3.15;;;1.85;;
52047;SDS011;46904;49.438;8.752;2022-09-02T01:21:22;2.17;;;1.98;;
52047;SDS011;46904;49.438;8.752;2022-09-02T01:23:48;2.05;;;1.85;;
52047;SDS011;46904;49.438;8.752;2022-09-02T01:26:14;2.10;;;1.92;;
52047;SDS011;46904;49.438;8.752;2022-09-02T01:28:39;2.40;;;2.20;;
52047;SDS011;46904;49.438;8.752;2022-09-02T01:31:05;2.22;;;2.03;;
52047;SDS011;46904;49.438;8.752;2022-09-02T01:33:31;1.92;;;1.83;;
52047;SDS011;46904;49.438;8.752;2022-09-02T01:35:57;2.22;;;2.00;;
52047;SDS011;46904;49.438;8.752;2022-09-02T01:38:23;1.88;;;1.77;;
52047;SDS011;46904;49.438;8.752;2022-09-02T01:40:48;2.22;;;2.00;;
52047;SDS011;46904;49.438;8.752;2022-09-02T01:43:16;2.05;;;1.90;;
52047;SDS011;46904;49.438;8.752;2022-09-02T01:45:42;2.70;;;2.10;;
52047;SDS011;46904;49.438;8.752;2022-09-02T01:48:09;2.38;;;2.17;;
52047;SDS011;46904;49.438;8.752;2022-09-02T01:50:36;1.90;;;1.80;;
52047;SDS011;46904;49.438;8.752;2022-09-02T01:53:01;3.78;;;2.13;;
52047;SDS011;46904;49.438;8.752;2022-09-02T01:55:27;2.83;;;1.77;;
52047;SDS011;46904;49.438;8.752;2022-09-02T01:57:53;2.00;;;1.80;;
52047;SDS011;46904;49.438;8.752;2022-09-02T02:00:18;2.05;;;1.95;;
52047;SDS011;46904;49.438;8.752;2022-09-02T02:02:44;2.10;;;1.98;;
52047;SDS011;46904;49.438;8.752;2022-09-02T02:05:09;3.30;;;1.70;;
52047;SDS011;46904;49.438;8.752;2022-09-02T02:07:35;1.88;;;1.75;;
52047;SDS011;46904;49.438;8.752;2022-09-02T02:10:01;2.85;;;1.70;;
52047;SDS011;46904;49.438;8.752;2022-09-02T02:12:28;2.17;;;1.90;;
52047;SDS011;46904;49.438;8.752;2022-09-02T02:14:53;2.53;;;2.05;;
52047;SDS011;46904;49.438;8.752;2022-09-02T02:17:19;1.90;;;1.70;;
52047;SDS011;46904;49.438;8.752;2022-09-02T02:19:44;1.85;;;1.75;;
52047;SDS011;46904;49.438;8.752;2022-09-02T02:22:10;2.22;;;2.03;;
52047;SDS011;46904;49.438;8.752;2022-09-02T02:24:35;2.33;;;1.75;;
52047;SDS011;46904;49.438;8.752;2022-09-02T02:27:01;1.92;;;1.77;;
52047;SDS011;46904;49.438;8.752;2022-09-02T02:29:26;2.20;;;2.00;;
52047;SDS011;46904;49.438;8.752;2022-09-02T02:31:52;1.92;;;1.80;;
52047;SDS011;46904;49.438;8.752;2022-09-02T02:34:17;1.90;;;1.80;;
52047;SDS011;46904;49.438;8.752;2022-09-02T02:36:43;2.25;;;1.90;;
52047;SDS011;46904;49.438;8.752;2022-09-02T02:39:09;2.08;;;1.90;;
52047;SDS011;46904;49.438;8.752;2022-09-02T02:41:35;1.85;;;1.73;;
52047;SDS011;46904;49.438;8.752;2022-09-02T02:44:01;2.10;;;1.90;;
52047;SDS011;46904;49.438;8.752;2022-09-02T02:46:27;2.90;;;1.90;;
52047;SDS011;46904;49.438;8.752;2022-09-02T02:48:52;1.90;;;1.73;;
52047;SDS011;46904;49.438;8.752;2022-09-02T02:51:18;1.90;;;1.80;;
52047;SDS011;46904;49.438;8.752;2022-09-02T02:53:44;2.00;;;1.88;;
52047;SDS011;46904;49.438;8.752;2022-09-02T02:56:09;2.63;;;2.03;;
52047;SDS011;46904;49.438;8.752;2022-09-02T02:58:35;2.08;;;1.88;;
52047;SDS011;46904;49.438;8.752;2022-09-02T03:01:00;1.95;;;1.70;;
52047;SDS011;46904;49.438;8.752;2022-09-02T03:03:26;1.80;;;1.70;;
52047;SDS011;46904;49.438;8.752;2022-09-02T03:05:52;2.00;;;1.67;;
52047;SDS011;46904;49.438;8.752;2022-09-02T03:08:19;2.33;;;1.90;;
52047;SDS011;46904;49.438;8.752;2022-09-02T03:10:44;1.85;;;1.70;;
52047;SDS011;46904;49.438;8.752;2022-09-02T03:13:10;1.80;;;1.70;;
52047;SDS011;46904;49.438;8.752;2022-09-02T03:15:36;1.90;;;1.80;;
52047;SDS011;46904;49.438;8.752;2022-09-02T03:18:02;2.25;;;2.05;;
52047;SDS011;46904;49.438;8.752;2022-09-02T03:20:27;2.33;;;2.03;;
52047;SDS011;46904;49.438;8.752;2022-09-02T03:22:54;1.85;;;1.67;;
52047;SDS011;46904;49.438;8.752;2022-09-02T03:25:20;1.95;;;1.60;;
52047;SDS011;46904;49.438;8.752;2022-09-02T03:27:46;1.95;;;1.75;;
52047;SDS011;46904;49.438;8.752;2022-09-02T03:30:13;2.28;;;1.80;;
52047;SDS011;46904;49.438;8.752;2022-09-02T03:32:39;2.30;;;1.70;;
52047;SDS011;46904;49.438;8.752;2022-09-02T03:35:05;2.78;;;2.00;;
52047;SDS011;46904;49.438;8.752;2022-09-02T03:37:31;2.00;;;1.90;;
52047;SDS011;46904;49.438;8.752;2022-09-02T03:39:57;5.15;;;1.88;;
52047;SDS011;46904;49.438;8.752;2022-09-02T03:42:23;2.20;;;1.70;;
52047;SDS011;46904;49.438;8.752;2022-09-02T03:44:48;2.40;;;1.58;;
52047;SDS011;46904;49.438;8.752;2022-09-02T03:47:14;1.65;;;1.55;;
52047;SDS011;46904;49.438;8.752;2022-09-02T03:49:39;2.05;;;1.80;;
52047;SDS011;46904;49.438;8.752;2022-09-02T03:52:05;1.98;;;1.77;;
52047;SDS011;46904;49.438;8.752;2022-09-02T03:54:30;2.10;;;1.85;;
52047;SDS011;46904;49.438;8.752;2022-09-02T03:56:56;1.75;;;1.65;;
52047;SDS011;46904;49.438;8.752;2022-09-02T03:59:21;1.67;;;1.58;;
52047;SDS011;46904;49.438;8.752;2022-09-02T04:01:47;2.03;;;1.75;;
52047;SDS011;46904;49.438;8.752;2022-09-02T04:04:12;2.08;;;1.58;;
52047;SDS011;46904;49.438;8.752;2022-09-02T04:06:39;3.15;;;1.95;;
52047;SDS011;46904;49.438;8.752;2022-09-02T04:09:05;2.90;;;1.60;;
52047;SDS011;46904;49.438;8.752;2022-09-02T04:11:30;3.30;;;1.73;;
52047;SDS011;46904;49.438;8.752;2022-09-02T04:13:56;1.67;;;1.58;;
52047;SDS011;46904;49.438;8.752;2022-09-02T04:21:50;3.05;;;1.60;;
52047;SDS011;46904;49.438;8.752;2022-09-02T04:24:16;1.77;;;1.63;;
52047;SDS011;46904;49.438;8.752;2022-09-02T04:26:41;1.88;;;1.75;;
52047;SDS011;46904;49.438;8.752;2022-09-02T04:29:07;2.30;;;1.80;;
52047;SDS011;46904;49.438;8.752;2022-09-02T04:31:33;1.50;;;1.40;;
52047;SDS011;46904;49.438;8.752;2022-09-02T04:33:59;3.75;;;1.83;;
52047;SDS011;46904;49.438;8.752;2022-09-02T04:36:25;2.00;;;1.80;;
52047;SDS011;46904;49.438;8.752;2022-09-02T04:38:51;2.08;;;1.88;;
52047;SDS011;46904;49.438;8.752;2022-09-02T04:41:18;3.63;;;2.10;;
52047;SDS011;46904;49.438;8.752;2022-09-02T04:43:44;1.70;;;1.60;;
52047;SDS011;46904;49.438;8.752;2022-09-02T04:46:11;1.98;;;1.67;;
52047;SDS011;46904;49.438;8.752;2022-09-02T04:48:37;1.90;;;1.80;;
52047;SDS011;46904;49.438;8.752;2022-09-02T04:51:07;1.77;;;1.60;;
52047;SDS011;46904;49.438;8.752;2022-09-02T04:53:33;1.92;;;1.65;;
52047;SDS011;46904;49.438;8.752;2022-09-02T04:56:01;1.60;;;1.50;;
52047;SDS011;46904;49.438;8.752;2022-09-02T04:58:27;1.80;;;1.70;;
52047;SDS011;46904;49.438;8.752;2022-09-02T05:00:53;2.00;;;1.65;;
52047;SDS011;46904;49.438;8.752;2022-09-02T05:03:18;1.92;;;1.73;;
52047;SDS011;46904;49.438;8.752;2022-09-02T05:05:44;1.65;;;1.50;;
52047;SDS011;46904;49.438;8.752;2022-09-02T05:08:09;2.85;;;1.80;;
52047;SDS011;46904;49.438;8.752;2022-09-02T05:10:35;1.70;;;1.60;;
52047;SDS011;46904;49.438;8.752;2022-09-02T05:13:00;1.67;;;1.58;;
52047;SDS011;46904;49.438;8.752;2022-09-02T05:15:26;1.55;;;1.45;;
52047;SDS011;46904;49.438;8.752;2022-09-02T05:17:52;1.60;;;1.50;;
52047;SDS011;46904;49.438;8.752;2022-09-02T05:20:17;2.10;;;1.90;;
52047;SDS011;46904;49.438;8.752;2022-09-02T05:22:46;5.77;;;1.63;;
52047;SDS011;46904;49.438;8.752;2022-09-02T05:25:14;1.42;;;1.27;;
52047;SDS011;46904;49.438;8.752;2022-09-02T05:27:39;2.00;;;1.60;;
52047;SDS011;46904;49.438;8.752;2022-09-02T05:30:05;1.75;;;1.65;;
52047;SDS011;46904;49.438;8.752;2022-09-02T05:32:31;2.75;;;1.52;;
52047;SDS011;46904;49.438;8.752;2022-09-02T05:34:56;1.58;;;1.48;;
52047;SDS011;46904;49.438;8.752;2022-09-02T05:37:22;1.63;;;1.52;;
52047;SDS011;46904;49.438;8.752;2022-09-02T05:39:48;2.00;;;1.75;;
52047;SDS011;46904;49.438;8.752;2022-09-02T05:42:13;1.73;;;1.63;;
52047;SDS011;46904;49.438;8.752;2022-09-02T05:44:39;1.55;;;1.38;;
52047;SDS011;46904;49.438;8.752;2022-09-02T05:47:05;1.80;;;1.70;;
52047;SDS011;46904;49.438;8.752;2022-09-02T05:49:30;1.92;;;1.73;;
52047;SDS011;46904;49.438;8.752;2022-09-02T05:51:57;1.80;;;1.58;;
52047;SDS011;46904;49.438;8.752;2022-09-02T05:54:41;1.80;;;1.60;;
52047;SDS011;46904;49.438;8.752;2022-09-02T05:57:10;1.50;;;1.40;;
52047;SDS011;46904;49.438;8.752;2022-09-02T05:59:37;1.77;;;1.40;;
52047;SDS011;46904;49.438;8.752;2022-09-02T06:02:03;1.50;;;1.40;;
52047;SDS011;46904;49.438;8.752;2022-09-02T06:04:29;2.22;;;1.70;;
52047;SDS011;46904;49.438;8.752;2022-09-02T06:06:54;2.70;;;1.52;;
52047;SDS011;46904;49.438;8.752;2022-09-02T06:09:21;1.85;;;1.75;;
52047;SDS011;46904;49.438;8.752;2022-09-02T06:11:47;2.10;;;1.77;;
52047;SDS011;46904;49.438;8.752;2022-09-02T06:14:17;1.73;;;1.52;;
52047;SDS011;46904;49.438;8.752;2022-09-02T06:16:43;1.90;;;1.70;;
52047;SDS011;46904;49.438;8.752;2022-09-02T06:19:08;1.67;;;1.58;;
52047;SDS011;46904;49.438;8.752;2022-09-02T06:21:34;2.13;;;1.42;;
52047;SDS011;46904;49.438;8.752;2022-09-02T06:24:03;1.77;;;1.58;;
52047;SDS011;46904;49.438;8.752;2022-09-02T06:26:29;1.70;;;1.60;;
52047;SDS011;46904;49.438;8.752;2022-09-02T06:28:57;2.15;;;1.60;;
52047;SDS011;46904;49.438;8.752;2022-09-02T06:31:22;1.50;;;1.40;;
52047;SDS011;46904;49.438;8.752;2022-09-02T06:33:50;1.90;;;1.70;;
52047;SDS011;46904;49.438;8.752;2022-09-02T06:36:16;1.60;;;1.50;;
52047;SDS011;46904;49.438;8.752;2022-09-02T06:38:47;1.90;;;1.58;;
52047;SDS011;46904;49.438;8.752;2022-09-02T06:41:13;1.30;;;1.20;;
52047;SDS011;46904;49.438;8.752;2022-09-02T06:43:39;1.40;;;1.30;;
52047;SDS011;46904;49.438;8.752;2022-09-02T06:46:05;1.88;;;1.70;;
52047;SDS011;46904;49.438;8.752;2022-09-02T06:48:31;1.80;;;1.63;;
52047;SDS011;46904;49.438;8.752;2022-09-02T06:50:56;1.52;;;1.40;;
52047;SDS011;46904;49.438;8.752;2022-09-02T06:53:22;1.40;;;1.30;;
52047;SDS011;46904;49.438;8.752;2022-09-02T06:55:48;1.63;;;1.33;;
52047;SDS011;46904;49.438;8.752;2022-09-02T06:58:13;2.72;;;1.30;;
52047;SDS011;46904;49.438;8.752;2022-09-02T07:00:39;2.90;;;1.48;;
52047;SDS011;46904;49.438;8.752;2022-09-02T07:03:05;1.70;;;1.60;;
52047;SDS011;46904;49.438;8.752;2022-09-02T07:05:31;2.15;;;1.60;;
52047;SDS011;46904;49.438;8.752;2022-09-02T07:07:57;1.30;;;1.20;;
52047;SDS011;46904;49.438;8.752;2022-09-02T07:10:22;1.50;;;1.40;;
52047;SDS011;46904;49.438;8.752;2022-09-02T07:12:48;2.30;;;1.88;;
52047;SDS011;46904;49.438;8.752;2022-09-02T07:15:14;2.20;;;2.00;;
52047;SDS011;46904;49.438;8.752;2022-09-02T07:17:39;1.75;;;1.65;;
52047;SDS011;46904;49.438;8.752;2022-09-02T07:20:05;1.50;;;1.40;;
52047;SDS011;46904;49.438;8.752;2022-09-02T07:22:31;1.70;;;1.60;;
52047;SDS011;46904;49.438;8.752;2022-09-02T07:24:57;2.15;;;1.95;;
52047;SDS011;46904;49.438;8.752;2022-09-02T07:27:22;1.88;;;1.48;;
52047;SDS011;46904;49.438;8.752;2022-09-02T07:29:48;1.70;;;1.60;;
52047;SDS011;46904;49.438;8.752;2022-09-02T07:32:17;3.47;;;1.42;;
52047;SDS011;46904;49.438;8.752;2022-09-02T07:34:42;1.90;;;1.67;;
52047;SDS011;46904;49.438;8.752;2022-09-02T07:37:08;1.58;;;1.48;;
52047;SDS011;46904;49.438;8.752;2022-09-02T07:39:34;1.92;;;1.73;;
52047;SDS011;46904;49.438;8.752;2022-09-02T07:42:00;1.73;;;1.50;;
52047;SDS011;46904;49.438;8.752;2022-09-02T07:44:25;2.03;;;1.50;;
52047;SDS011;46904;49.438;8.752;2022-09-02T07:46:51;1.38;;;1.20;;
52047;SDS011;46904;49.438;8.752;2022-09-02T07:49:17;1.50;;;1.40;;
52047;SDS011;46904;49.438;8.752;2022-09-02T07:51:49;3.03;;;1.50;;
52047;SDS011;46904;49.438;8.752;2022-09-02T07:54:29;1.83;;;1.60;;
52047;SDS011;46904;49.438;8.752;2022-09-02T07:57:00;1.70;;;1.60;;
52047;SDS011;46904;49.438;8.752;2022-09-02T07:59:31;1.50;;;1.40;;
52047;SDS011;46904;49.438;8.752;2022-09-02T08:01:56;1.83;;;1.40;;
52047;SDS011;46904;49.438;8.752;2022-09-02T08:04:22;2.22;;;1.58;;
52047;SDS011;46904;49.438;8.752;2022-09-02T08:06:48;3.17;;;1.60;;
52047;SDS011;46904;49.438;8.752;2022-09-02T08:09:13;1.98;;;1.58;;
52047;SDS011;46904;49.438;8.752;2022-09-02T08:11:41;2.05;;;1.40;;
52047;SDS011;46904;49.438;8.752;2022-09-02T08:14:07;2.92;;;1.33;;
52047;SDS011;46904;49.438;8.752;2022-09-02T08:16:33;1.60;;;1.50;;
52047;SDS011;46904;49.438;8.752;2022-09-02T08:18:59;1.77;;;1.60;;
52047;SDS011;46904;49.438;8.752;2022-09-02T08:21:25;1.80;;;1.60;;
52047;SDS011;46904;49.438;8.752;2022-09-02T08:23:50;1.60;;;1.50;;
52047;SDS011;46904;49.438;8.752;2022-09-02T08:26:16;2.25;;;1.60;;
52047;SDS011;46904;49.438;8.752;2022-09-02T08:28:42;1.52;;;1.42;;
52047;SDS011;46904;49.438;8.752;2022-09-02T08:31:07;1.80;;;1.45;;
52047;SDS011;46904;49.438;8.752;2022-09-02T08:33:33;1.63;;;1.52;;
52047;SDS011;46904;49.438;8.752;2022-09-02T08:36:03;1.85;;;1.25;;
52047;SDS011;46904;49.438;8.752;2022-09-02T08:38:29;1.95;;;1.27;;
52047;SDS011;46904;49.438;8.752;2022-09-02T08:40:54;4.30;;;1.45;;
52047;SDS011;46904;49.438;8.752;2022-09-02T08:43:33;2.20;;;1.70;;
52047;SDS011;46904;49.438;8.752;2022-09-02T08:46:01;1.40;;;1.30;;
52047;SDS011;46904;49.438;8.752;2022-09-02T08:48:35;2.58;;;1.20;;
52047;SDS011;46904;49.438;8.752;2022-09-02T08:51:03;1.33;;;1.23;;
52047;SDS011;46904;49.438;8.752;2022-09-02T08:53:47;1.60;;;1.35;;
52047;SDS011;46904;49.438;8.752;2022-09-02T08:56:15;1.10;;;1.00;;
52047;SDS011;46904;49.438;8.752;2022-09-02T08:58:42;1.33;;;1.23;;
52047;SDS011;46904;49.438;8.752;2022-09-02T09:04:16;1.45;;;1.27;;
52047;SDS011;46904;49.438;8.752;2022-09-02T09:06:47;1.40;;;1.30;;
52047;SDS011;46904;49.438;8.752;2022-09-02T09:11:48;1.70;;;1.33;;
52047;SDS011;46904;49.438;8.752;2022-09-02T09:17:09;7.38;;;2.53;;
52047;SDS011;46904;49.438;8.752;2022-09-02T09:22:11;1.42;;;1.33;;
52047;SDS011;46904;49.438;8.752;2022-09-02T09:24:39;1.90;;;1.50;;
52047;SDS011;46904;49.438;8.752;2022-09-02T09:27:15;1.35;;;1.17;;
52047;SDS011;46904;49.438;8.752;2022-09-02T09:29:42;1.60;;;1.20;;
52047;SDS011;46904;49.438;8.752;2022-09-02T09:42:43;1.52;;;1.20;;
52047;SDS011;46904;49.438;8.752;2022-09-02T09:45:15;1.30;;;1.20;;
52047;SDS011;46904;49.438;8.752;2022-09-02T09:47:42;1.75;;;1.65;;
52047;SDS011;46904;49.438;8.752;2022-09-02T09:50:16;2.55;;;1.10;;
52047;SDS011;46904;49.438;8.752;2022-09-02T09:52:42;1.55;;;1.10;;
52047;SDS011;46904;49.438;8.752;2022-09-02T09:55:18;1.38;;;1.20;;
52047;SDS011;46904;49.438;8.752;2022-09-02T09:57:44;2.20;;;1.25;;
52047;SDS011;46904;49.438;8.752;2022-09-02T10:00:27;1.08;;;0.98;;
52047;SDS011;46904;49.438;8.752;2022-09-02T10:02:54;1.40;;;1.10;;
52047;SDS011;46904;49.438;8.752;2022-09-02T10:07:54;0.90;;;0.90;;
52047;SDS011;46904;49.438;8.752;2022-09-02T10:10:24;1.75;;;1.10;;
52047;SDS011;46904;49.438;8.752;2022-09-02T10:12:50;1.23;;;1.10;;
52047;SDS011;46904;49.438;8.752;2022-09-02T10:15:20;1.33;;;1.02;;
52047;SDS011;46904;49.438;8.752;2022-09-02T10:23:04;1.52;;;1.38;;
52047;SDS011;46904;49.438;8.752;2022-09-02T10:38:43;1.15;;;1.05;;
52047;SDS011;46904;49.438;8.752;2022-09-02T10:46:50;1.23;;;1.10;;
52047;SDS011;46904;49.438;8.752;2022-09-02T10:57:19;3.45;;;1.25;;
52047;SDS011;46904;49.438;8.752;2022-09-02T10:59:49;1.10;;;1.05;;
52047;SDS011;46904;49.438;8.752;2022-09-02T11:02:18;1.42;;;1.25;;
52047;SDS011;46904;49.438;8.752;2022-09-02T11:04:52;0.98;;;0.98;;
52047;SDS011;46904;49.438;8.752;2022-09-02T11:07:20;1.05;;;0.95;;
52047;SDS011;46904;49.438;8.752;2022-09-02T11:12:16;2.28;;;1.10;;
52047;SDS011;46904;49.438;8.752;2022-09-02T11:17:09;1.02;;;0.93;;
52047;SDS011;46904;49.438;8.752;2022-09-02T11:30:14;1.50;;;1.02;;
52047;SDS011;46904;49.438;8.752;2022-09-02T11:35:23;0.98;;;0.88;;
52047;SDS011;46904;49.438;8.752;2022-09-02T11:37:49;3.13;;;1.58;;
52047;SDS011;46904;49.438;8.752;2022-09-02T11:40:17;1.45;;;1.15;;
52047;SDS011;46904;49.438;8.752;2022-09-02T11:55:21;1.20;;;1.10;;
52047;SDS011;46904;49.438;8.752;2022-09-02T11:57:52;1.08;;;0.98;;
52047;SDS011;46904;49.438;8.752;2022-09-02T12:08:03;1.08;;;0.98;;
52047;SDS011;46904;49.438;8.752;2022-09-02T12:13:07;1.10;;;1.00;;
52047;SDS011;46904;49.438;8.752;2022-09-02T12:15:34;1.40;;;1.02;;
52047;SDS011;46904;49.438;8.752;2022-09-02T12:18:13;0.80;;;0.80;;
52047;SDS011;46904;49.438;8.752;2022-09-02T12:26:06;1.10;;;1.00;;
52047;SDS011;46904;49.438;8.752;2022-09-02T12:28:32;1.40;;;1.17;;
52047;SDS011;46904;49.438;8.752;2022-09-02T12:33:31;1.10;;;1.00;;
52047;SDS011;46904;49.438;8.752;2022-09-02T12:35:57;1.33;;;1.20;;
52047;SDS011;46904;49.438;8.752;2022-09-02T12:38:30;3.13;;;1.23;;
52047;SDS011;46904;49.438;8.752;2022-09-02T12:48:41;2.95;;;1.40;;
52047;SDS011;46904;49.438;8.752;2022-09-02T12:51:09;2.72;;;1.50;;
52047;SDS011;46904;49.438;8.752;2022-09-02T12:53:41;1.40;;;1.30;;
52047;SDS011;46904;49.438;8.752;2022-09-02T12:58:54;1.27;;;1.17;;
52047;SDS011;46904;49.438;8.752;2022-09-02T13:01:24;2.42;;;1.08;;
52047;SDS011;46904;49.438;8.752;2022-09-02T13:09:05;1.75;;;1.10;;
52047;SDS011;46904;49.438;8.752;2022-09-02T13:33:00;2.30;;;1.17;;
52047;SDS011;46904;49.438;8.752;2022-09-02T13:35:28;0.98;;;0.98;;
52047;SDS011;46904;49.438;8.752;2022-09-02T13:37:59;1.60;;;1.10;;
52047;SDS011;46904;49.438;8.752;2022-09-02T13:40:26;1.00;;;1.00;;
52047;SDS011;46904;49.438;8.752;2022-09-02T13:42:53;1.13;;;1.02;;
52047;SDS011;46904;49.438;8.752;2022-09-02T13:45:20;1.50;;;0.95;;
52047;SDS011;46904;49.438;8.752;2022-09-02T13:47:55;0.90;;;0.90;;
52047;SDS011;46904;49.438;8.752;2022-09-02T13:50:22;3.25;;;2.05;;
52047;SDS011;46904;49.438;8.752;2022-09-02T13:52:50;1.10;;;1.00;;
52047;SDS011;46904;49.438;8.752;2022-09-02T13:55:16;1.00;;;1.00;;
52047;SDS011;46904;49.438;8.752;2022-09-02T13:57:45;2.53;;;1.33;;
52047;SDS011;46904;49.438;8.752;2022-09-02T14:00:18;0.98;;;0.98;;
52047;SDS011;46904;49.438;8.752;2022-09-02T14:02:57;1.30;;;1.20;;
52047;SDS011;46904;49.438;8.752;2022-09-02T14:05:31;1.40;;;1.30;;
52047;SDS011;46904;49.438;8.752;2022-09-02T14:07:58;1.40;;;1.30;;
52047;SDS011;46904;49.438;8.752;2022-09-02T14:10:25;1.13;;;1.08;;
52047;SDS011;46904;49.438;8.752;2022-09-02T14:12:51;0.95;;;0.90;;
52047;SDS011;46904;49.438;8.752;2022-09-02T14:15:22;1.15;;;1.05;;
52047;SDS011;46904;49.438;8.752;2022-09-02T14:18:21;1.00;;;1.00;;
52047;SDS011;46904;49.438;8.752;2022-09-02T14:23:20;1.58;;;1.10;;
52047;SDS011;46904;49.438;8.752;2022-09-02T14:25:50;1.08;;;1.00;;
52047;SDS011;46904;49.438;8.752;2022-09-02T14:28:18;0.85;;;0.85;;
52047;SDS011;46904;49.438;8.752;2022-09-02T14:30:52;0.90;;;0.90;;
52047;SDS011;46904;49.438;8.752;2022-09-02T14:35:57;2.73;;;1.00;;
52047;SDS011;46904;49.438;8.752;2022-09-02T14:38:23;2.42;;;1.20;;
52047;SDS011;46904;49.438;8.752;2022-09-02T14:40:49;1.65;;;1.00;;
52047;SDS011;46904;49.438;8.752;2022-09-02T14:43:22;1.10;;;1.00;;
52047;SDS011;46904;49.438;8.752;2022-09-02T14:45:48;1.13;;;1.02;;
52047;SDS011;46904;49.438;8.752;2022-09-02T14:48:17;1.10;;;0.98;;
52047;SDS011;46904;49.438;8.752;2022-09-02T14:50:48;1.42;;;1.33;;
52047;SDS011;46904;49.438;8.752;2022-09-02T14:53:18;1.35;;;0.95;;
52047;SDS011;46904;49.438;8.752;2022-09-02T14:58:10;1.38;;;1.10;;
52047;SDS011;46904;49.438;8.752;2022-09-02T15:00:36;0.90;;;0.90;;
52047;SDS011;46904;49.438;8.752;2022-09-02T15:03:02;1.15;;;1.00;;
52047;SDS011;46904;49.438;8.752;2022-09-02T15:05:28;3.65;;;1.30;;
52047;SDS011;46904;49.438;8.752;2022-09-02T15:07:53;1.00;;;1.00;;
52047;SDS011;46904;49.438;8.752;2022-09-02T15:10:19;1.00;;;1.00;;
52047;SDS011;46904;49.438;8.752;2022-09-02T15:12:51;0.98;;;0.93;;
52047;SDS011;46904;49.438;8.752;2022-09-02T15:15:18;1.55;;;1.10;;
52047;SDS011;46904;49.438;8.752;2022-09-02T15:17:43;1.10;;;1.00;;
52047;SDS011;46904;49.438;8.752;2022-09-02T15:20:09;1.17;;;1.00;;
52047;SDS011;46904;49.438;8.752;2022-09-02T15:22:35;1.02;;;0.93;;
52047;SDS011;46904;49.438;8.752;2022-09-02T15:25:00;0.95;;;0.90;;
52047;SDS011;46904;49.438;8.752;2022-09-02T15:27:26;0.90;;;0.90;;
52047;SDS011;46904;49.438;8.752;2022-09-02T15:30:01;1.52;;;1.00;;
52047;SDS011;46904;49.438;8.752;2022-09-02T15:32:27;1.10;;;1.00;;
52047;SDS011;46904;49.438;8.752;2022-09-02T15:34:54;1.63;;;1.13;;
52047;SDS011;46904;49.438;8.752;2022-09-02T15:37:26;1.05;;;0.95;;
52047;SDS011;46904;49.438;8.752;2022-09-02T15:39:54;2.08;;;1.00;;
52047;SDS011;46904;49.438;8.752;2022-09-02T15:42:22;2.45;;;1.00;;
52047;SDS011;46904;49.438;8.752;2022-09-02T15:44:56;1.10;;;1.00;;
52047;SDS011;46904;49.438;8.752;2022-09-02T15:47:26;1.73;;;1.60;;
52047;SDS011;46904;49.438;8.752;2022-09-02T15:49:52;2.20;;;1.40;;
52047;SDS011;46904;49.438;8.752;2022-09-02T15:52:17;1.25;;;1.08;;
52047;SDS011;46904;49.438;8.752;2022-09-02T15:54:53;0.93;;;0.93;;
52047;SDS011;46904;49.438;8.752;2022-09-02T15:57:18;1.10;;;0.95;;
52047;SDS011;46904;49.438;8.752;2022-09-02T15:59:45;1.48;;;1.00;;
52047;SDS011;46904;49.438;8.752;2022-09-02T16:02:13;0.93;;;0.93;;
52047;SDS011;46904;49.438;8.752;2022-09-02T16:04:42;1.15;;;0.98;;
52047;SDS011;46904;49.438;8.752;2022-09-02T16:07:08;1.55;;;1.00;;
52047;SDS011;46904;49.438;8.752;2022-09-02T16:09:33;1.10;;;1.00;;
52047;SDS011;46904;49.438;8.752;2022-09-02T16:11:59;4.78;;;3.88;;
52047;SDS011;46904;49.438;8.752;2022-09-02T16:14:25;2.80;;;2.40;;
52047;SDS011;46904;49.438;8.752;2022-09-02T16:16:51;2.30;;;1.50;;
52047;SDS011;46904;49.438;8.752;2022-09-02T16:19:20;1.50;;;1.02;;
52047;SDS011;46904;49.438;8.752;2022-09-02T16:21:46;3.05;;;1.13;;
52047;SDS011;46904;49.438;8.752;2022-09-02T16:24:12;1.20;;;1.10;;
52047;SDS011;46904;49.438;8.752;2022-09-02T16:26:38;1.65;;;0.90;;
52047;SDS011;46904;49.438;8.752;2022-09-02T16:29:05;1.63;;;0.98;;
52047;SDS011;46904;49.438;8.752;2022-09-02T16:31:31;1.10;;;0.95;;
52047;SDS011;46904;49.438;8.752;2022-09-02T16:33:58;1.10;;;1.00;;
52047;SDS011;46904;49.438;8.752;2022-09-02T16:36:24;0.85;;;0.82;;
52047;SDS011;46904;49.438;8.752;2022-09-02T16:38:50;2.08;;;1.08;;
52047;SDS011;46904;49.438;8.752;2022-09-02T16:43:47;0.75;;;0.75;;
52047;SDS011;46904;49.438;8.752;2022-09-02T16:46:13;1.20;;;1.10;;
52047;SDS011;46904;49.438;8.752;2022-09-02T16:48:38;1.13;;;1.02;;
52047;SDS011;46904;49.438;8.752;2022-09-02T16:51:04;2.47;;;1.00;;
52047;SDS011;46904;49.438;8.752;2022-09-02T16:53:30;1.60;;;1.00;;
52047;SDS011;46904;49.438;8.752;2022-09-02T16:55:55;1.77;;;0.95;;
52047;SDS011;46904;49.438;8.752;2022-09-02T16:58:21;0.70;;;0.70;;
52047;SDS011;46904;49.438;8.752;2022-09-02T17:00:47;1.20;;;1.00;;
52047;SDS011;46904;49.438;8.752;2022-09-02T17:03:13;0.80;;;0.80;;
52047;SDS011;46904;49.438;8.752;2022-09-02T17:05:38;0.80;;;0.80;;
52047;SDS011;46904;49.438;8.752;2022-09-02T17:08:05;1.67;;;1.35;;
52047;SDS011;46904;49.438;8.752;2022-09-02T17:10:31;0.80;;;0.80;;
52047;SDS011;46904;49.438;8.752;2022-09-02T17:12:57;1.10;;;1.00;;
52047;SDS011;46904;49.438;8.752;2022-09-02T17:15:24;1.10;;;1.00;;
52047;SDS011;46904;49.438;8.752;2022-09-02T17:17:49;1.00;;;0.90;;
52047;SDS011;46904;49.438;8.752;2022-09-02T17:20:15;1.00;;;1.00;;
52047;SDS011;46904;49.438;8.752;2022-09-02T17:22:40;1.70;;;1.08;;
52047;SDS011;46904;49.438;8.752;2022-09-02T17:25:06;4.53;;;1.10;;
52047;SDS011;46904;49.438;8.752;2022-09-02T17:27:32;1.77;;;0.90;;